Time;durP1;ratioP1;P1;durP2;ratioP2;P2;SDS_P1;SDS_P2;PMS_P1;PMS_P2;Temp;Humidity;BMP_temperature;BMP_pressure;BME280_temperature;BME280_humidity;BME280_pressure;Samples;Min_cycle;Max_cycle;Signal;HPM_P1;HPM_P2
2021/12/01 00:02:37;;;;;;;26.90;12.03;;;;;9.80;99561.00;;;;5067657;28;20596;-73
2021/12/01 00:05:26;;;;;;;24.97;11.20;;;;;9.80;99547.00;;;;5066759;28;20236;-73
2021/12/01 00:08:12;;;;;;;23.87;11.23;;;;;9.80;99548.00;;;;5057381;28;20235;-74
2021/12/01 00:10:59;;;;;;;23.53;10.80;;;;;9.80;99534.00;;;;5060895;28;20234;-72
2021/12/01 00:13:46;;;;;;;24.07;11.50;;;;;9.80;99534.00;;;;5059307;28;20233;-73
2021/12/01 00:16:32;;;;;;;25.37;12.70;;;;;9.80;99527.00;;;;5065144;28;20297;-73
2021/12/01 00:19:18;;;;;;;25.00;12.83;;;;;9.90;99520.00;;;;5062909;28;20230;-72
2021/12/01 00:22:05;;;;;;;22.80;12.63;;;;;9.80;99522.00;;;;5061654;28;20599;-72
2021/12/01 00:24:52;;;;;;;21.23;12.37;;;;;9.90;99513.00;;;;5067133;28;20239;-74
2021/12/01 00:27:38;;;;;;;21.03;11.87;;;;;9.90;99510.00;;;;5066595;28;20960;-74
2021/12/01 00:30:26;;;;;;;21.77;12.30;;;;;9.90;99491.00;;;;5064118;28;20297;-74
2021/12/01 00:33:17;;;;;;;21.57;12.43;;;;;9.90;99482.00;;;;5055701;28;20239;-72
2021/12/01 00:36:05;;;;;;;22.37;12.50;;;;;9.90;99497.00;;;;5066553;28;20242;-70
2021/12/01 00:38:51;;;;;;;23.73;13.43;;;;;9.90;99491.00;;;;5066895;28;20304;-73
2021/12/01 00:41:38;;;;;;;24.67;14.17;;;;;9.90;99465.00;;;;5062922;28;20343;-74
2021/12/01 00:44:24;;;;;;;24.70;15.27;;;;;9.90;99470.00;;;;5060134;28;20293;-74
2021/12/01 00:47:12;;;;;;;23.73;14.40;;;;;9.90;99467.00;;;;5066573;28;20247;-73
2021/12/01 00:49:59;;;;;;;22.37;13.07;;;;;9.90;99464.00;;;;5065419;28;20241;-73
2021/12/01 00:52:45;;;;;;;22.67;12.60;;;;;9.90;99456.00;;;;5058528;28;20685;-74
2021/12/01 00:55:32;;;;;;;20.27;12.60;;;;;9.90;99454.00;;;;5064440;28;20249;-72
2021/12/01 00:58:19;;;;;;;19.63;12.33;;;;;9.80;99443.00;;;;5065839;28;20738;-74
2021/12/01 01:01:05;;;;;;;14.93;10.30;;;;;9.90;99446.00;;;;5060608;28;20891;-74
2021/12/01 01:03:53;;;;;;;17.90;10.90;;;;;9.90;99437.00;;;;5059184;28;20619;-73
2021/12/01 01:06:39;;;;;;;17.53;10.20;;;;;9.90;99441.00;;;;5064365;28;20302;-73
2021/12/01 01:09:31;;;;;;;16.13;9.20;;;;;9.90;99425.00;;;;5066719;28;20246;-71
2021/12/01 01:18:25;;;;;;;14.10;8.80;;;;;9.90;99405.00;;;;5051133;28;20592;-74
2021/12/01 01:21:13;;;;;;;12.70;8.67;;;;;9.90;99386.00;;;;5060758;28;20245;-73
2021/12/01 01:24:01;;;;;;;14.93;9.37;;;;;9.80;99393.00;;;;5059904;28;20256;-75
2021/12/01 01:26:48;;;;;;;16.53;9.70;;;;;9.80;99377.00;;;;5066252;28;20473;-74
2021/12/01 01:29:36;;;;;;;14.43;9.40;;;;;9.80;99367.00;;;;5066502;28;20233;-74
2021/12/01 01:32:23;;;;;;;18.50;10.37;;;;;9.90;99377.00;;;;5066275;28;20702;-75
2021/12/01 01:35:10;;;;;;;15.53;10.17;;;;;9.80;99355.00;;;;5052745;28;20240;-74
2021/12/01 01:37:57;;;;;;;13.47;9.10;;;;;9.80;99373.00;;;;5045612;28;20236;-73
2021/12/01 01:40:44;;;;;;;12.83;8.17;;;;;9.90;99344.00;;;;5037993;28;20384;-72
2021/12/01 01:43:30;;;;;;;10.37;6.93;;;;;9.80;99355.00;;;;5044168;28;20840;-73
2021/12/01 01:46:17;;;;;;;11.40;7.07;;;;;9.80;99344.00;;;;5060268;28;20234;-73
2021/12/01 01:49:10;;;;;;;10.33;6.87;;;;;9.80;99333.00;;;;5056250;28;20232;-73
2021/12/01 01:51:56;;;;;;;9.43;6.00;;;;;9.70;99325.00;;;;5059366;28;20237;-72
2021/12/01 01:54:43;;;;;;;9.90;6.60;;;;;9.80;99326.00;;;;5068842;28;20311;-74
2021/12/01 01:57:30;;;;;;;11.53;7.30;;;;;9.80;99322.00;;;;5052234;28;20622;-71
2021/12/01 02:00:17;;;;;;;11.70;7.27;;;;;9.80;99311.00;;;;5049888;28;20727;-73
2021/12/01 02:03:03;;;;;;;10.20;7.10;;;;;9.70;99295.00;;;;5064338;28;20293;-73
2021/12/01 02:05:50;;;;;;;10.17;7.00;;;;;9.80;99289.00;;;;5081073;28;20237;-75
2021/12/01 02:08:39;;;;;;;10.03;7.23;;;;;9.70;99280.00;;;;5078935;28;20257;-74
2021/12/01 02:11:29;;;;;;;12.00;7.30;;;;;9.80;99286.00;;;;5078621;28;20311;-73
2021/12/01 02:14:16;;;;;;;10.87;7.87;;;;;9.70;99267.00;;;;5080997;28;20234;-72
2021/12/01 02:17:03;;;;;;;10.30;7.43;;;;;9.70;99261.00;;;;5082131;28;20228;-71
2021/12/01 02:19:55;;;;;;;10.80;7.43;;;;;9.70;99260.00;;;;5069167;28;20237;-72
2021/12/01 02:22:43;;;;;;;9.70;6.87;;;;;9.80;99258.00;;;;5078720;28;20234;-72
2021/12/01 02:25:29;;;;;;;8.97;6.40;;;;;9.70;99247.00;;;;5079782;28;20239;-70
2021/12/01 02:28:15;;;;;;;9.27;6.47;;;;;9.80;99258.00;;;;5081693;28;20725;-74
2021/12/01 02:31:01;;;;;;;9.40;6.63;;;;;9.80;99243.00;;;;5072474;28;20233;-73
2021/12/01 02:33:48;;;;;;;9.90;6.40;;;;;9.70;99214.00;;;;5048072;28;20337;-71
2021/12/01 02:36:35;;;;;;;9.27;6.00;;;;;9.70;99229.00;;;;5079973;28;20237;-72
2021/12/01 02:39:22;;;;;;;8.37;5.83;;;;;9.70;99239.00;;;;5080825;28;20623;-72
2021/12/01 02:42:09;;;;;;;6.93;5.53;;;;;9.80;99215.00;;;;5077884;28;20328;-73
2021/12/01 02:44:56;;;;;;;9.90;6.17;;;;;9.80;99230.00;;;;5047703;28;20230;-72
2021/12/01 02:47:42;;;;;;;7.73;6.00;;;;;9.70;99214.00;;;;5048638;28;20248;-72
2021/12/01 02:50:29;;;;;;;8.30;6.33;;;;;9.70;99215.00;;;;5041634;28;20245;-73
2021/12/01 02:53:15;;;;;;;11.00;6.80;;;;;9.70;99206.00;;;;5048467;28;20304;-73
2021/12/01 02:56:05;;;;;;;8.43;6.47;;;;;9.70;99206.00;;;;5046814;28;20336;-72
2021/12/01 02:58:52;;;;;;;10.23;6.70;;;;;9.60;99193.00;;;;5043007;28;20234;-73
2021/12/01 03:01:39;;;;;;;9.20;6.90;;;;;9.60;99175.00;;;;5048997;28;20370;-71
2021/12/01 03:04:25;;;;;;;11.33;6.97;;;;;9.50;99197.00;;;;5048655;28;20234;-73
2021/12/01 03:07:12;;;;;;;9.30;6.20;;;;;9.50;99184.00;;;;5047516;28;20233;-72
2021/12/01 03:09:59;;;;;;;7.67;5.80;;;;;9.50;99186.00;;;;5042446;28;20322;-71
2021/12/01 03:12:47;;;;;;;8.27;5.97;;;;;9.50;99158.00;;;;5068585;28;20226;-72
2021/12/01 03:15:33;;;;;;;9.80;6.43;;;;;9.50;99157.00;;;;5055127;28;20260;-74
2021/12/01 03:18:20;;;;;;;8.57;6.10;;;;;9.50;99144.00;;;;5058902;28;20253;-73
2021/12/01 03:21:06;;;;;;;9.40;6.13;;;;;9.60;99159.00;;;;5045723;28;20232;-73
2021/12/01 03:23:53;;;;;;;10.53;6.67;;;;;9.50;99141.00;;;;5051826;28;20277;-72
2021/12/01 03:26:39;;;;;;;8.63;6.50;;;;;9.40;99141.00;;;;5049061;28;20295;-73
2021/12/01 03:29:27;;;;;;;9.40;6.47;;;;;9.40;99135.00;;;;5060242;28;20302;-73
2021/12/01 03:32:13;;;;;;;9.10;6.97;;;;;9.50;99135.00;;;;5049748;28;20237;-72
2021/12/01 03:35:00;;;;;;;8.07;6.17;;;;;9.50;99127.00;;;;5049959;28;20280;-71
2021/12/01 03:37:47;;;;;;;10.43;6.70;;;;;9.40;99126.00;;;;5046629;28;20225;-72
2021/12/01 03:40:34;;;;;;;8.37;6.27;;;;;9.40;99115.00;;;;5049271;28;20234;-72
2021/12/01 03:43:21;;;;;;;7.37;5.33;;;;;9.40;99122.00;;;;5054210;28;20232;-72
2021/12/01 03:46:09;;;;;;;8.27;6.17;;;;;9.40;99140.00;;;;5050420;28;20253;-72
2021/12/01 03:48:55;;;;;;;8.67;6.40;;;;;9.40;99105.00;;;;5052536;28;20326;-71
2021/12/01 03:51:41;;;;;;;8.63;6.83;;;;;9.30;99095.00;;;;5048967;28;20228;-73
2021/12/01 03:54:28;;;;;;;9.83;6.40;;;;;9.40;99093.00;;;;5053467;28;20786;-71
2021/12/01 03:57:15;;;;;;;8.97;6.53;;;;;9.40;99067.00;;;;5058403;28;20751;-71
2021/12/01 04:00:04;;;;;;;9.70;6.87;;;;;9.40;99072.00;;;;5050198;28;20226;-73
2021/12/01 04:02:52;;;;;;;9.23;7.33;;;;;9.30;99069.00;;;;5048672;28;20233;-72
2021/12/01 04:05:39;;;;;;;10.47;7.30;;;;;9.30;99056.00;;;;5052854;28;20355;-73
2021/12/01 04:08:25;;;;;;;9.87;7.30;;;;;9.30;99040.00;;;;5049943;28;20719;-71
2021/12/01 04:11:11;;;;;;;12.43;7.27;;;;;9.30;99028.00;;;;5054800;28;20274;-73
2021/12/01 04:13:58;;;;;;;10.73;8.03;;;;;9.30;99044.00;;;;5054462;28;20329;-73
2021/12/01 04:16:44;;;;;;;11.07;7.40;;;;;9.30;99039.00;;;;5053447;28;20631;-72
2021/12/01 04:19:31;;;;;;;13.33;7.73;;;;;9.40;99032.00;;;;5048400;28;20381;-72
2021/12/01 04:22:18;;;;;;;13.03;7.57;;;;;9.30;99031.00;;;;5061284;28;20650;-73
2021/12/01 04:25:05;;;;;;;9.93;7.30;;;;;9.30;99005.00;;;;5044769;28;20285;-71
2021/12/01 04:27:53;;;;;;;10.87;7.37;;;;;9.30;98994.00;;;;5062045;28;20237;-72
2021/12/01 04:30:39;;;;;;;11.00;7.60;;;;;9.30;99006.00;;;;5077317;28;20869;-73
2021/12/01 04:33:25;;;;;;;12.37;7.37;;;;;9.40;98993.00;;;;5077533;28;20229;-72
2021/12/01 04:36:14;;;;;;;12.10;7.17;;;;;9.30;98980.00;;;;5078189;28;20237;-73
2021/12/01 04:39:03;;;;;;;11.87;7.20;;;;;9.30;98982.00;;;;5074816;28;20745;-73
2021/12/01 04:41:52;;;;;;;12.37;8.43;;;;;9.20;98971.00;;;;5049587;28;20741;-70
2021/12/01 04:44:39;;;;;;;11.23;7.40;;;;;9.20;98978.00;;;;5057744;28;20236;-72
2021/12/01 04:47:28;;;;;;;12.70;7.77;;;;;9.30;98973.00;;;;5051247;28;20238;-73
2021/12/01 04:50:17;;;;;;;13.40;8.00;;;;;9.20;98960.00;;;;5043667;28;20228;-72
2021/12/01 04:53:04;;;;;;;11.67;7.77;;;;;9.30;98958.00;;;;5048767;28;20291;-72
2021/12/01 04:55:51;;;;;;;11.50;7.53;;;;;9.20;98941.00;;;;5044719;28;20237;-71
2021/12/01 04:58:37;;;;;;;12.20;7.83;;;;;9.20;98927.00;;;;5053204;28;20250;-71
2021/12/01 05:01:23;;;;;;;9.97;6.93;;;;;9.10;98930.00;;;;5050821;28;20316;-72
2021/12/01 05:04:11;;;;;;;11.17;7.60;;;;;9.20;98938.00;;;;5054554;28;20241;-72
2021/12/01 05:06:57;;;;;;;11.57;8.43;;;;;9.10;98926.00;;;;5043074;28;20794;-72
2021/12/01 05:09:45;;;;;;;10.43;7.60;;;;;9.10;98905.00;;;;5047571;28;20316;-73
2021/12/01 05:12:31;;;;;;;10.67;7.20;;;;;9.10;98899.00;;;;5052597;28;20228;-71
2021/12/01 05:15:18;;;;;;;11.47;7.30;;;;;9.10;98897.00;;;;5048166;28;20881;-73
2021/12/01 05:18:04;;;;;;;11.00;6.90;;;;;9.10;98892.00;;;;5053762;28;20240;-72
2021/12/01 05:20:53;;;;;;;11.17;7.67;;;;;9.10;98891.00;;;;5057226;28;20472;-72
2021/12/01 05:23:40;;;;;;;11.17;7.47;;;;;9.00;98885.00;;;;5051778;28;20228;-72
2021/12/01 05:26:27;;;;;;;10.97;7.63;;;;;9.00;98882.00;;;;5048520;28;20608;-71
2021/12/01 05:29:16;;;;;;;10.37;8.03;;;;;9.10;98870.00;;;;5053346;28;20241;-72
2021/12/01 05:32:02;;;;;;;11.47;7.37;;;;;8.90;98867.00;;;;5044860;28;20234;-72
2021/12/01 05:34:49;;;;;;;11.00;7.77;;;;;8.90;98857.00;;;;5056900;28;20237;-72
2021/12/01 05:37:35;;;;;;;10.40;7.50;;;;;8.90;98824.00;;;;5047594;28;20258;-72
2021/12/01 05:40:21;;;;;;;10.10;7.20;;;;;8.90;98831.00;;;;5050617;28;20238;-72
2021/12/01 05:43:09;;;;;;;10.53;6.73;;;;;9.00;98823.00;;;;5050403;28;20331;-72
2021/12/01 05:45:57;;;;;;;11.33;7.27;;;;;8.90;98823.00;;;;5048798;28;20235;-72
2021/12/01 05:48:44;;;;;;;8.93;6.20;;;;;8.90;98829.00;;;;5049411;28;20215;-72
2021/12/01 05:51:30;;;;;;;6.90;5.43;;;;;8.90;98814.00;;;;5042888;28;20299;-72
2021/12/01 05:54:17;;;;;;;10.23;6.33;;;;;8.80;98802.00;;;;5065643;28;20251;-72
2021/12/01 05:57:04;;;;;;;8.60;5.73;;;;;8.90;98772.00;;;;5073799;28;20240;-72
2021/12/01 05:59:51;;;;;;;9.40;5.90;;;;;8.90;98752.00;;;;5048098;28;20229;-72
2021/12/01 06:02:38;;;;;;;7.63;5.27;;;;;8.80;98772.00;;;;5049855;28;20235;-73
2021/12/01 06:05:24;;;;;;;7.87;4.87;;;;;8.90;98754.00;;;;5046963;28;20233;-72
2021/12/01 06:08:11;;;;;;;6.37;4.80;;;;;8.80;98738.00;;;;5053307;28;20236;-72
2021/12/01 06:10:58;;;;;;;5.77;4.40;;;;;8.80;98732.00;;;;5052030;28;20845;-72
2021/12/01 06:13:45;;;;;;;6.67;4.67;;;;;8.80;98735.00;;;;5059393;28;20238;-72
2021/12/01 06:16:32;;;;;;;5.50;4.00;;;;;8.80;98739.00;;;;5082448;28;20603;-70
2021/12/01 06:19:19;;;;;;;6.40;3.83;;;;;8.80;98734.00;;;;5074741;28;20315;-72
2021/12/01 06:22:06;;;;;;;6.83;3.77;;;;;8.90;98733.00;;;;5077760;28;20240;-71
2021/12/01 06:24:52;;;;;;;6.40;3.97;;;;;8.80;98712.00;;;;5051773;28;20723;-71
2021/12/01 06:27:39;;;;;;;9.63;6.57;;;;;8.80;98709.00;;;;5073338;28;20248;-71
2021/12/01 06:30:26;;;;;;;4.87;3.80;;;;;8.80;98712.00;;;;5053215;28;20278;-70
2021/12/01 06:33:14;;;;;;;6.40;4.03;;;;;8.80;98719.00;;;;5076627;28;20280;-71
2021/12/01 06:36:01;;;;;;;5.77;3.93;;;;;8.80;98704.00;;;;5066398;28;20227;-71
2021/12/01 06:38:47;;;;;;;6.43;3.60;;;;;8.80;98695.00;;;;5039503;28;20232;-71
2021/12/01 06:41:34;;;;;;;5.00;3.70;;;;;8.70;98690.00;;;;5045043;28;20839;-71
2021/12/01 06:44:20;;;;;;;5.53;3.87;;;;;8.80;98698.00;;;;5039205;28;20237;-71
2021/12/01 06:47:08;;;;;;;5.63;4.17;;;;;8.80;98699.00;;;;5066600;28;20608;-71
2021/12/01 06:49:55;;;;;;;5.50;3.87;;;;;8.70;98686.00;;;;5068235;28;20748;-72
2021/12/01 06:52:43;;;;;;;5.33;3.77;;;;;8.70;98692.00;;;;5059564;28;20850;-70
2021/12/01 06:55:30;;;;;;;4.60;3.37;;;;;8.70;98674.00;;;;5066037;28;20236;-70
2021/12/01 06:58:18;;;;;;;5.83;3.53;;;;;8.70;98699.00;;;;5067199;28;20241;-70
2021/12/01 07:01:06;;;;;;;5.10;3.90;;;;;8.60;98670.00;;;;5067656;28;20620;-70
2021/12/01 07:03:58;;;;;;;4.83;3.53;;;;;8.70;98664.00;;;;5065692;28;20278;-71
2021/12/01 07:06:45;;;;;;;7.90;4.20;;;;;8.70;98662.00;;;;5062015;28;20228;-70
2021/12/01 07:09:37;;;;;;;5.60;3.77;;;;;8.60;98667.00;;;;5066781;28;20708;-71
2021/12/01 07:12:24;;;;;;;5.90;4.30;;;;;8.60;98658.00;;;;5066819;28;20275;-70
2021/12/01 07:15:13;;;;;;;4.17;3.77;;;;;8.60;98643.00;;;;5062243;28;20275;-71
2021/12/01 07:17:59;;;;;;;6.57;4.10;;;;;8.60;98656.00;;;;5061103;28;20239;-71
2021/12/01 07:20:45;;;;;;;5.50;4.30;;;;;8.50;98648.00;;;;5058675;28;20225;-71
2021/12/01 07:23:33;;;;;;;5.47;4.40;;;;;8.60;98644.00;;;;5061140;28;20330;-70
2021/12/01 07:26:20;;;;;;;5.67;4.20;;;;;8.60;98633.00;;;;5068752;28;20315;-71
2021/12/01 07:29:06;;;;;;;4.77;4.00;;;;;8.60;98643.00;;;;5067391;28;20691;-70
2021/12/01 07:31:54;;;;;;;5.73;4.50;;;;;8.60;98636.00;;;;5066071;28;20230;-70
2021/12/01 07:34:44;;;;;;;5.60;4.27;;;;;8.60;98623.00;;;;5063575;28;20232;-70
2021/12/01 07:37:30;;;;;;;6.30;4.83;;;;;8.70;98609.00;;;;5066926;28;20772;-69
2021/12/01 07:40:18;;;;;;;6.37;4.50;;;;;8.60;98610.00;;;;5065011;28;20235;-71
2021/12/01 07:43:04;;;;;;;6.07;4.33;;;;;8.60;98609.00;;;;5061963;28;20240;-70
2021/12/01 07:45:51;;;;;;;6.67;4.40;;;;;8.60;98622.00;;;;5063828;28;20236;-71
2021/12/01 07:48:37;;;;;;;5.23;4.07;;;;;8.70;98600.00;;;;5067261;28;20227;-71
2021/12/01 07:51:24;;;;;;;5.27;3.63;;;;;8.60;98591.00;;;;5064784;28;20283;-71
2021/12/01 07:54:10;;;;;;;6.63;3.97;;;;;8.70;98594.00;;;;5066339;28;20237;-70
2021/12/01 07:56:58;;;;;;;4.87;4.03;;;;;8.70;98589.00;;;;5060601;28;20768;-70
2021/12/01 07:59:45;;;;;;;6.17;4.10;;;;;8.60;98583.00;;;;5059072;28;20232;-70
2021/12/01 08:02:31;;;;;;;5.43;4.00;;;;;8.60;98586.00;;;;5060012;28;20241;-70
2021/12/01 08:05:17;;;;;;;6.57;4.17;;;;;8.70;98545.00;;;;5059823;28;20235;-70
2021/12/01 08:08:05;;;;;;;7.13;4.63;;;;;8.80;98571.00;;;;5059778;28;20222;-70
2021/12/01 08:10:51;;;;;;;5.37;4.17;;;;;8.70;98566.00;;;;5056699;28;20354;-70
2021/12/01 08:13:40;;;;;;;4.63;3.87;;;;;8.80;98565.00;;;;5062554;28;20600;-68
2021/12/01 08:16:28;;;;;;;4.77;3.87;;;;;8.80;98561.00;;;;5066394;28;20914;-69
2021/12/01 08:19:15;;;;;;;4.07;3.57;;;;;8.80;98559.00;;;;5066308;28;20614;-71
2021/12/01 08:22:01;;;;;;;4.07;3.13;;;;;8.90;98562.00;;;;5060339;28;20228;-71
2021/12/01 08:24:49;;;;;;;3.43;2.97;;;;;8.90;98545.00;;;;5058822;28;20232;-69
2021/12/01 08:27:35;;;;;;;5.93;3.63;;;;;8.90;98550.00;;;;5066717;28;20734;-70
2021/12/01 08:30:22;;;;;;;3.83;2.90;;;;;9.00;98527.00;;;;5059483;28;20225;-70
2021/12/01 08:33:09;;;;;;;2.93;2.53;;;;;8.90;98518.00;;;;5065913;28;20294;-69
2021/12/01 08:35:55;;;;;;;6.10;3.10;;;;;8.90;98519.00;;;;5057962;28;20236;-71
2021/12/01 08:38:42;;;;;;;3.63;2.50;;;;;8.90;98512.00;;;;5064605;28;20235;-72
2021/12/01 08:41:28;;;;;;;4.33;3.10;;;;;9.00;98522.00;;;;5060470;28;20282;-70
2021/12/01 08:44:15;;;;;;;4.27;3.00;;;;;8.90;98514.00;;;;5065646;28;20237;-71
2021/12/01 08:47:04;;;;;;;4.70;3.03;;;;;8.90;98498.00;;;;5057450;28;20436;-71
2021/12/01 08:49:51;;;;;;;3.27;2.97;;;;;9.00;98494.00;;;;5059738;28;20233;-73
2021/12/01 08:52:40;;;;;;;3.30;2.90;;;;;9.00;98504.00;;;;5059221;28;20233;-73
2021/12/01 08:55:27;;;;;;;3.50;3.00;;;;;8.90;98489.00;;;;5060379;28;20364;-74
2021/12/01 08:58:26;;;;;;;4.83;3.00;;;;;8.90;98497.00;;;;5062823;28;20573;-71
2021/12/01 09:01:13;;;;;;;3.77;2.73;;;;;9.00;98504.00;;;;5057426;28;20241;-72
2021/12/01 09:04:01;;;;;;;3.07;2.77;;;;;9.00;98505.00;;;;5056450;28;21011;-73
2021/12/01 09:06:48;;;;;;;3.00;2.70;;;;;9.00;98485.00;;;;5061445;28;20287;-71
2021/12/01 09:09:34;;;;;;;3.00;2.70;;;;;9.00;98481.00;;;;5061101;28;20356;-70
2021/12/01 09:12:22;;;;;;;4.83;2.67;;;;;9.10;98475.00;;;;5061367;28;20215;-72
2021/12/01 09:15:09;;;;;;;3.57;2.77;;;;;9.10;98486.00;;;;5057237;28;20243;-72
2021/12/01 09:17:57;;;;;;;4.40;2.90;;;;;9.00;98473.00;;;;5057080;28;20278;-71
2021/12/01 09:20:44;;;;;;;4.23;2.90;;;;;9.10;98478.00;;;;5062299;28;20352;-74
2021/12/01 09:23:31;;;;;;;3.47;3.00;;;;;9.00;98475.00;;;;5056589;28;20233;-72
2021/12/01 09:26:17;;;;;;;3.77;3.30;;;;;9.00;98467.00;;;;5063001;28;20256;-73
2021/12/01 09:29:04;;;;;;;5.87;3.40;;;;;9.00;98466.00;;;;5057586;28;20627;-74
2021/12/01 09:31:51;;;;;;;3.03;2.83;;;;;9.00;98463.00;;;;5053833;28;20231;-73
2021/12/01 09:34:39;;;;;;;3.40;3.10;;;;;9.10;98455.00;;;;5062622;28;20292;-71
2021/12/01 09:37:27;;;;;;;4.87;3.37;;;;;9.10;98476.00;;;;5059790;28;20762;-71
2021/12/01 09:40:18;;;;;;;4.33;3.20;;;;;9.10;98463.00;;;;5059216;28;20296;-71
2021/12/01 09:43:04;;;;;;;4.00;3.20;;;;;9.10;98465.00;;;;5053059;28;20307;-70
2021/12/01 09:45:51;;;;;;;5.47;3.50;;;;;9.20;98436.00;;;;5065273;28;20276;-73
2021/12/01 09:48:38;;;;;;;3.77;3.30;;;;;9.20;98454.00;;;;5059392;28;20235;-74
2021/12/01 09:51:30;;;;;;;4.13;3.47;;;;;9.30;98454.00;;;;5064917;28;20232;-73
2021/12/01 09:54:17;;;;;;;4.00;3.43;;;;;9.20;98439.00;;;;5060864;28;20236;-73
2021/12/01 09:57:04;;;;;;;3.80;3.40;;;;;9.10;98445.00;;;;5059665;28;20238;-73
2021/12/01 09:59:50;;;;;;;4.87;3.20;;;;;9.20;98454.00;;;;5057681;28;20265;-75
2021/12/01 10:02:36;;;;;;;3.40;3.10;;;;;9.20;98451.00;;;;5064876;28;20228;-73
2021/12/01 10:05:47;;;;;;;5.00;3.30;;;;;9.20;98457.00;;;;5061593;28;20724;-73
2021/12/01 10:08:36;;;;;;;4.27;3.70;;;;;9.10;98430.00;;;;5064939;28;20364;-74
2021/12/01 10:11:25;;;;;;;4.43;3.50;;;;;9.20;98428.00;;;;5064776;28;20865;-74
2021/12/01 10:14:18;;;;;;;5.67;3.60;;;;;9.30;98440.00;;;;5064861;28;20248;-73
2021/12/01 10:17:06;;;;;;;4.50;3.67;;;;;9.20;98426.00;;;;5062194;28;20746;-74
2021/12/01 10:20:10;;;;;;;5.60;4.00;;;;;9.20;98427.00;;;;5061787;28;20233;-74
2021/12/01 10:23:08;;;;;;;4.47;3.63;;;;;9.30;98419.00;;;;5064127;28;20744;-74
2021/12/01 10:25:56;;;;;;;5.47;4.70;;;;;9.30;98414.00;;;;5062091;28;20241;-75
2021/12/01 10:28:45;;;;;;;4.90;4.30;;;;;9.20;98401.00;;;;5064467;28;20230;-74
2021/12/01 10:31:39;;;;;;;5.30;4.57;;;;;9.30;98398.00;;;;5072515;28;20258;-73
2021/12/01 10:34:30;;;;;;;5.40;4.40;;;;;9.30;98406.00;;;;5060910;28;20379;-70
2021/12/01 10:37:22;;;;;;;7.73;5.00;;;;;9.30;98397.00;;;;5068342;28;20234;-72
2021/12/01 10:40:12;;;;;;;6.07;4.93;;;;;9.30;98389.00;;;;5063379;28;20276;-71
2021/12/01 10:43:00;;;;;;;7.20;5.20;;;;;9.40;98380.00;;;;5061995;28;20727;-69
2021/12/01 10:45:48;;;;;;;7.40;4.97;;;;;9.40;98384.00;;;;5065975;28;20731;-70
2021/12/01 10:48:35;;;;;;;5.67;4.70;;;;;9.40;98379.00;;;;5068341;28;20285;-73
2021/12/01 10:51:33;;;;;;;6.83;4.60;;;;;9.40;98384.00;;;;5064674;28;20277;-74
2021/12/01 10:54:21;;;;;;;6.90;4.67;;;;;9.40;98372.00;;;;5064511;28;20240;-70
2021/12/01 10:57:19;;;;;;;7.03;4.70;;;;;9.40;98371.00;;;;5056773;28;20295;-73
2021/12/01 11:00:13;;;;;;;5.27;4.50;;;;;9.30;98365.00;;;;5063137;28;20593;-72
2021/12/01 11:03:09;;;;;;;5.90;4.47;;;;;9.40;98365.00;;;;5067933;28;20308;-72
2021/12/01 11:05:57;;;;;;;5.10;4.30;;;;;9.30;98369.00;;;;5058970;28;20904;-73
2021/12/01 11:08:47;;;;;;;7.43;4.80;;;;;9.30;98368.00;;;;5065863;28;20221;-72
2021/12/01 11:11:39;;;;;;;6.20;4.63;;;;;9.40;98364.00;;;;5063345;28;20832;-72
2021/12/01 11:14:45;;;;;;;6.70;4.37;;;;;9.40;98357.00;;;;5058952;28;20246;-72
2021/12/01 11:17:41;;;;;;;6.40;4.10;;;;;9.40;98328.00;;;;5071137;28;20232;-71
2021/12/01 11:20:39;;;;;;;5.77;4.47;;;;;9.40;98358.00;;;;5064748;28;20376;-72
2021/12/01 11:23:29;;;;;;;7.40;4.10;;;;;9.40;98363.00;;;;5062579;28;20276;-72
2021/12/01 11:26:18;;;;;;;5.83;3.90;;;;;9.50;98379.00;;;;5061350;28;20299;-73
2021/12/01 11:29:06;;;;;;;6.07;3.63;;;;;9.50;98386.00;;;;5067434;28;20225;-74
2021/12/01 11:31:53;;;;;;;3.90;3.17;;;;;9.40;98381.00;;;;5055569;28;20242;-73
2021/12/01 11:34:39;;;;;;;3.23;2.30;;;;;9.40;98381.00;;;;5067871;28;20759;-72
2021/12/01 11:37:27;;;;;;;2.40;2.20;;;;;9.40;98384.00;;;;5063650;28;20225;-73
2021/12/01 11:40:13;;;;;;;2.20;1.80;;;;;9.40;98381.00;;;;5067556;28;20719;-72
2021/12/01 11:43:00;;;;;;;2.20;2.00;;;;;9.40;98371.00;;;;5060372;28;20786;-73
2021/12/01 11:45:47;;;;;;;2.87;2.03;;;;;9.40;98364.00;;;;5059853;28;20367;-73
2021/12/01 11:48:37;;;;;;;3.17;2.10;;;;;9.30;98372.00;;;;5060597;28;20254;-73
2021/12/01 11:51:25;;;;;;;1.80;1.70;;;;;9.40;98365.00;;;;5059480;28;20319;-72
2021/12/01 11:54:18;;;;;;;2.70;1.40;;;;;9.30;98362.00;;;;5066228;28;20765;-72
2021/12/01 11:57:06;;;;;;;9.07;4.93;;;;;9.30;98361.00;;;;5066785;28;20236;-72
2021/12/01 11:59:53;;;;;;;8.77;4.63;;;;;9.30;98365.00;;;;5059035;28;20378;-72
2021/12/01 12:02:39;;;;;;;3.10;1.60;;;;;9.40;98367.00;;;;5066871;28;20282;-71
2021/12/01 12:05:27;;;;;;;2.67;1.57;;;;;9.30;98373.00;;;;5062514;28;20233;-72
2021/12/01 12:08:56;;;;;;;2.37;1.80;;;;;9.40;98381.00;;;;5062023;28;20713;-73
2021/12/01 12:11:45;;;;;;;4.23;1.73;;;;;9.40;98373.00;;;;5059602;28;20607;-72
2021/12/01 12:14:38;;;;;;;4.00;1.80;;;;;9.30;98367.00;;;;5058518;28;20229;-72
2021/12/01 12:17:35;;;;;;;1.83;1.50;;;;;9.40;98364.00;;;;5041044;28;20313;-72
2021/12/01 12:20:24;;;;;;;3.43;1.70;;;;;9.40;98348.00;;;;5054006;28;20241;-70
2021/12/01 12:23:11;;;;;;;2.77;1.40;;;;;9.40;98370.00;;;;5058079;28;20292;-73
2021/12/01 12:25:58;;;;;;;3.50;1.53;;;;;9.50;98363.00;;;;5043906;28;20281;-72
2021/12/01 12:29:02;;;;;;;5.30;1.67;;;;;9.60;98358.00;;;;5063673;28;20245;-70
2021/12/01 12:31:49;;;;;;;3.80;1.77;;;;;9.40;98352.00;;;;5040756;28;20629;-71
2021/12/01 12:34:49;;;;;;;3.43;1.70;;;;;9.40;98360.00;;;;5058153;28;20230;-70
2021/12/01 12:37:36;;;;;;;2.00;1.50;;;;;9.50;98366.00;;;;5069124;28;20236;-71
2021/12/01 12:40:34;;;;;;;5.40;1.40;;;;;9.40;98371.00;;;;5058148;28;20343;-70
2021/12/01 12:43:23;;;;;;;1.50;1.40;;;;;9.30;98356.00;;;;5055621;28;20265;-71
2021/12/01 12:46:15;;;;;;;1.17;1.07;;;;;9.30;98364.00;;;;5043510;28;20618;-70
2021/12/01 12:49:02;;;;;;;3.90;1.50;;;;;9.40;98363.00;;;;5060998;28;20245;-71
2021/12/01 12:51:48;;;;;;;1.73;1.47;;;;;9.30;98363.00;;;;5060668;28;20650;-71
2021/12/01 12:54:38;;;;;;;2.47;1.40;;;;;9.30;98369.00;;;;5071582;28;20295;-72
2021/12/01 12:57:26;;;;;;;2.43;1.50;;;;;9.30;98365.00;;;;5065364;28;20223;-71
2021/12/01 13:00:24;;;;;;;2.80;1.20;;;;;9.20;98368.00;;;;5068810;28;20239;-73
2021/12/01 13:03:31;;;;;;;1.60;1.17;;;;;9.20;98369.00;;;;5072691;28;20227;-73
2021/12/01 13:06:27;;;;;;;4.00;1.20;;;;;9.20;98380.00;;;;5057462;28;20230;-71
2021/12/01 13:09:18;;;;;;;13.53;7.43;;;;;9.20;98366.00;;;;5068897;28;20282;-71
2021/12/01 13:12:06;;;;;;;2.87;1.23;;;;;9.20;98364.00;;;;5073718;28;20737;-71
2021/12/01 13:14:52;;;;;;;7.10;1.50;;;;;9.20;98366.00;;;;5047750;28;20827;-71
2021/12/01 13:17:40;;;;;;;3.73;1.40;;;;;9.20;98362.00;;;;5077622;28;20297;-73
2021/12/01 13:20:30;;;;;;;5.13;1.60;;;;;9.20;98369.00;;;;5076829;28;20251;-72
2021/12/01 13:23:21;;;;;;;4.57;1.53;;;;;9.20;98379.00;;;;5053866;28;20698;-72
2021/12/01 13:26:10;;;;;;;3.63;1.80;;;;;9.10;98371.00;;;;5049099;28;20228;-71
2021/12/01 13:29:01;;;;;;;2.73;1.57;;;;;9.10;98381.00;;;;5039439;28;20265;-69
2021/12/01 13:31:48;;;;;;;2.47;2.00;;;;;9.00;98381.00;;;;5051003;28;20233;-72
2021/12/01 13:34:35;;;;;;;4.50;1.80;;;;;9.00;98371.00;;;;5065718;28;20233;-72
2021/12/01 13:37:23;;;;;;;4.40;2.10;;;;;9.10;98378.00;;;;5065186;28;20237;-72
2021/12/01 13:40:13;;;;;;;2.73;2.20;;;;;9.10;98377.00;;;;5065241;28;20241;-72
2021/12/01 13:42:59;;;;;;;6.57;2.57;;;;;9.20;98368.00;;;;5065343;28;20233;-72
2021/12/01 13:45:57;;;;;;;4.70;2.20;;;;;9.00;98365.00;;;;5057906;28;20223;-71
2021/12/01 13:48:51;;;;;;;7.03;2.40;;;;;9.20;98369.00;;;;5053542;28;20271;-73
2021/12/01 13:51:40;;;;;;;7.77;2.13;;;;;9.10;98384.00;;;;5067674;28;20362;-72
2021/12/01 13:54:28;;;;;;;7.10;2.03;;;;;9.10;98373.00;;;;5066549;28;20229;-70
2021/12/01 13:57:14;;;;;;;5.73;2.20;;;;;9.20;98377.00;;;;5069602;28;20621;-74
2021/12/01 14:00:01;;;;;;;5.77;2.40;;;;;9.20;98369.00;;;;5062207;28;20224;-73
2021/12/01 14:02:52;;;;;;;5.00;2.23;;;;;9.30;98383.00;;;;5068162;28;20256;-72
2021/12/01 14:05:39;;;;;;;7.90;2.10;;;;;9.30;98374.00;;;;5068031;28;20233;-74
2021/12/01 14:08:34;;;;;;;5.30;2.03;;;;;9.20;98370.00;;;;5059888;28;20751;-73
2021/12/01 14:11:35;;;;;;;3.87;1.90;;;;;9.20;98362.00;;;;5046888;28;20829;-72
2021/12/01 14:14:23;;;;;;;5.77;2.30;;;;;9.30;98380.00;;;;5056687;28;20798;-73
2021/12/01 14:17:10;;;;;;;5.90;2.17;;;;;9.20;98360.00;;;;5046494;28;20239;-74